createdAt,value
2022-12-02T00:01:07.148Z,5.5
2022-12-02T00:03:08.912Z,5.4
2022-12-02T00:05:13.707Z,5.4
2022-12-02T00:07:15.373Z,5.4
2022-12-02T00:09:17.013Z,5.4
2022-12-02T00:11:18.673Z,5.4
2022-12-02T00:13:20.349Z,5.3
2022-12-02T00:15:22.028Z,5.4
2022-12-02T00:17:23.694Z,5.4
2022-12-02T00:19:28.664Z,5.3
2022-12-02T00:21:30.248Z,5.3
2022-12-02T00:23:31.899Z,5.3
2022-12-02T00:25:33.581Z,5.4
2022-12-02T00:27:35.253Z,5.4
2022-12-02T00:29:36.881Z,5.3
2022-12-02T00:31:38.660Z,5.4
2022-12-02T00:33:43.492Z,5.3
2022-12-02T00:35:45.137Z,5.2
2022-12-02T00:37:46.801Z,5.2
2022-12-02T00:40:15.434Z,5.1
2022-12-02T00:42:17.074Z,5.2
2022-12-02T00:44:18.746Z,5.1
2022-12-02T00:46:23.663Z,5.1
2022-12-02T00:48:25.304Z,5.1
2022-12-02T00:50:26.962Z,5
2022-12-02T00:52:28.610Z,5
2022-12-02T00:54:30.328Z,5
2022-12-02T00:56:31.981Z,5.1
2022-12-02T00:58:33.577Z,5
2022-12-02T01:00:38.515Z,5
2022-12-02T01:02:40.173Z,5
2022-12-02T01:04:41.787Z,5
2022-12-02T01:06:43.464Z,4.9
2022-12-02T01:10:46.754Z,4.9
2022-12-02T01:12:48.423Z,5
2022-12-02T01:14:53.508Z,4.9
2022-12-02T01:16:55.004Z,4.8
2022-12-02T01:18:56.611Z,4.7
2022-12-02T01:20:58.259Z,4.8
2022-12-02T01:22:59.913Z,4.8
2022-12-02T01:25:01.559Z,5
2022-12-02T01:27:03.222Z,4.9
2022-12-02T01:29:08.079Z,4.8
2022-12-02T01:31:09.743Z,4.9
2022-12-02T01:33:11.386Z,4.9
2022-12-02T01:36:15.485Z,4.9
2022-12-02T01:38:17.125Z,4.9
2022-12-02T01:40:18.741Z,4.8
2022-12-02T01:42:23.648Z,4.9
2022-12-02T01:44:25.301Z,4.9
2022-12-02T01:46:27.002Z,4.9
2022-12-02T01:48:28.567Z,4.9
2022-12-02T01:50:30.235Z,4.8
2022-12-02T01:52:31.889Z,4.7
2022-12-02T01:54:33.528Z,4.8
2022-12-02T01:56:39.964Z,4.8
2022-12-02T01:58:41.598Z,4.7
2022-12-02T02:00:43.266Z,4.8
2022-12-02T02:02:44.915Z,4.8
2022-12-02T02:04:46.516Z,4.9
2022-12-02T02:06:48.178Z,4.9
2022-12-02T02:08:49.802Z,4.8
2022-12-02T02:10:54.690Z,4.8
2022-12-02T02:12:56.343Z,4.9
2022-12-02T02:14:57.982Z,4.9
2022-12-02T02:16:59.721Z,4.9
2022-12-02T02:19:01.252Z,4.9
2022-12-02T02:21:02.920Z,4.9
2022-12-02T02:23:04.553Z,4.8
2022-12-02T02:25:09.428Z,4.8
2022-12-02T02:27:11.055Z,4.8
2022-12-02T02:32:16.811Z,4.8
2022-12-02T02:34:18.463Z,4.8
2022-12-02T02:36:20.141Z,4.7
2022-12-02T02:38:24.978Z,4.8
2022-12-02T02:40:26.617Z,4.7
2022-12-02T02:42:28.278Z,4.9
2022-12-02T02:44:29.933Z,4.8
2022-12-02T02:46:31.630Z,4.9
2022-12-02T02:48:33.223Z,4.7
2022-12-02T02:50:34.891Z,4.8
2022-12-02T02:52:39.759Z,4.8
2022-12-02T02:54:41.438Z,4.8
2022-12-02T02:56:43.153Z,4.8
2022-12-02T02:58:44.694Z,4.9
2022-12-02T03:02:48.050Z,4.8
2022-12-02T03:04:49.960Z,4.7
2022-12-02T03:25:12.583Z,4.8
2022-12-02T03:26:15.021Z,4.6
2022-12-02T03:28:16.656Z,4.7
2022-12-02T03:30:18.753Z,4.7
2022-12-02T03:32:19.981Z,4.7
2022-12-02T03:34:24.862Z,4.7
2022-12-02T03:44:33.083Z,4.6
2022-12-02T03:46:34.749Z,4.7
2022-12-02T03:48:39.588Z,4.6
2022-12-02T03:52:42.891Z,4.6
2022-12-02T03:54:44.523Z,4.5
2022-12-02T03:56:46.153Z,4.5
2022-12-02T04:02:54.463Z,4.3
2022-12-02T04:04:55.942Z,4.3
2022-12-02T04:06:57.590Z,4.4
2022-12-02T04:15:04.139Z,4.3
2022-12-02T04:23:40.892Z,4.2
2022-12-02T04:27:44.135Z,4.1
2022-12-02T04:31:50.659Z,4.1
2022-12-02T04:33:52.284Z,4
2022-12-02T04:35:53.925Z,4.1
2022-12-02T04:37:55.549Z,4.1
2022-12-02T04:39:57.161Z,4.1
2022-12-02T04:44:03.657Z,4
2022-12-02T04:46:05.349Z,4.2
2022-12-02T04:48:06.880Z,4.1
2022-12-02T04:50:08.522Z,4.1
2022-12-02T04:56:13.392Z,4.1
2022-12-02T04:58:18.239Z,4.1
2022-12-02T05:00:19.866Z,4
2022-12-02T05:02:21.556Z,4.1
2022-12-02T05:04:23.208Z,4
2022-12-02T05:06:24.736Z,4.1
2022-12-02T05:08:26.361Z,4.1
2022-12-02T05:10:27.995Z,4.1
2022-12-02T05:12:32.849Z,4
2022-12-02T05:14:34.453Z,4.1
2022-12-02T05:16:36.118Z,4
2022-12-02T05:17:42.161Z,4
2022-12-02T05:21:41.768Z,4.1
2022-12-02T05:23:43.374Z,4.1
2022-12-02T05:25:48.231Z,4
2022-12-02T05:27:49.850Z,4
2022-12-02T05:29:51.542Z,3.9
2022-12-02T05:31:53.214Z,3.9
2022-12-02T05:33:54.783Z,3.9
2022-12-02T05:35:56.386Z,3.8
2022-12-02T05:38:01.694Z,3.9
2022-12-02T05:40:02.853Z,3.9
2022-12-02T05:42:04.479Z,3.8
2022-12-02T05:44:06.113Z,3.8
2022-12-02T05:46:07.705Z,3.8
2022-12-02T05:48:09.394Z,3.7
2022-12-02T05:50:10.957Z,3.8
2022-12-02T05:52:12.570Z,3.8
2022-12-02T05:54:17.440Z,3.6
2022-12-02T05:56:19.027Z,3.8
2022-12-02T05:58:20.683Z,3.8
2022-12-02T06:00:22.271Z,3.7
2022-12-02T06:02:24.030Z,3.6
2022-12-02T06:04:25.634Z,3.7
2022-12-02T06:06:27.104Z,3.7
2022-12-02T06:10:33.574Z,3.6
2022-12-02T06:12:35.187Z,3.7
2022-12-02T06:13:37.611Z,3.6
2022-12-02T06:15:39.207Z,3.6
2022-12-02T06:17:40.829Z,3.6
2022-12-02T06:27:52.126Z,3.7
2022-12-02T06:29:53.756Z,3.6
2022-12-02T06:31:55.411Z,3.7
2022-12-02T06:33:56.941Z,3.7
2022-12-02T06:38:03.412Z,3.6
2022-12-02T06:40:27.516Z,3.7
2022-12-02T06:42:06.631Z,3.8
2022-12-02T06:44:08.243Z,3.8
2022-12-02T06:50:16.353Z,3.7
2022-12-02T06:52:17.972Z,3.8
2022-12-02T06:54:19.702Z,3.8
2022-12-02T06:56:21.179Z,3.7
2022-12-02T06:58:22.796Z,3.8
2022-12-02T07:00:24.401Z,3.8
2022-12-02T07:02:26.077Z,3.8
2022-12-02T07:04:30.892Z,3.8
2022-12-02T07:06:32.476Z,3.8
2022-12-02T07:08:34.103Z,3.8
2022-12-02T07:09:36.524Z,3.7
2022-12-02T07:11:38.125Z,3.7
2022-12-02T07:13:39.739Z,3.8
2022-12-02T07:15:41.332Z,3.7
2022-12-02T07:17:46.176Z,3.7
2022-12-02T07:19:47.829Z,3.8
2022-12-02T07:21:53.416Z,3.8
2022-12-02T07:27:54.250Z,3.9
2022-12-02T07:29:55.890Z,3.9
2022-12-02T07:32:00.707Z,3.9
2022-12-02T07:34:02.299Z,3.9
2022-12-02T07:36:03.924Z,3.9
2022-12-02T07:38:05.536Z,3.9
2022-12-02T07:40:07.229Z,3.8
2022-12-02T07:42:08.758Z,3.9
2022-12-02T07:44:10.385Z,3.8
2022-12-02T07:46:16.856Z,3.8
2022-12-02T07:48:18.369Z,3.8
2022-12-02T07:50:19.979Z,3.9
2022-12-02T07:52:21.569Z,3.9
2022-12-02T07:54:23.175Z,4
2022-12-02T07:56:24.782Z,3.9
2022-12-02T08:02:32.862Z,3.9
2022-12-02T08:04:34.514Z,3.9
2022-12-02T08:07:03.118Z,3.9
2022-12-02T08:09:04.789Z,4
2022-12-02T08:11:06.368Z,4
2022-12-02T08:13:11.229Z,3.9
2022-12-02T08:15:12.839Z,4
2022-12-02T08:17:14.473Z,4
2022-12-02T08:19:16.069Z,3.9
2022-12-02T08:21:17.688Z,4
2022-12-02T08:23:19.302Z,4.1
2022-12-02T08:25:20.920Z,4
2022-12-02T08:27:25.820Z,4
2022-12-02T08:29:27.380Z,3.9
2022-12-02T08:31:29.051Z,4
2022-12-02T08:33:30.631Z,3.9
2022-12-02T08:35:32.236Z,4.1
2022-12-02T08:37:33.873Z,3.9
2022-12-02T08:39:35.454Z,4
2022-12-02T08:41:40.307Z,3.9
2022-12-02T08:45:43.544Z,4
2022-12-02T08:47:45.169Z,3.9
2022-12-02T08:49:46.798Z,3.9
2022-12-02T08:53:50.031Z,4
2022-12-02T08:55:54.893Z,4
2022-12-02T08:57:56.493Z,4.2
2022-12-02T08:59:58.111Z,4.2
2022-12-02T09:01:00.545Z,4.2
2022-12-02T09:03:02.185Z,4.1
2022-12-02T09:05:03.796Z,4.2
2022-12-02T09:07:05.381Z,4.2
2022-12-02T09:09:10.301Z,4.2
2022-12-02T09:11:12.047Z,4.2
2022-12-02T09:13:13.497Z,4.1
2022-12-02T09:15:15.114Z,4.1
2022-12-02T09:17:16.742Z,4.3
2022-12-02T09:19:18.351Z,4.2
2022-12-02T09:21:19.961Z,4.2
2022-12-02T09:23:24.825Z,4.3
2022-12-02T09:25:26.444Z,4.2
2022-12-02T09:27:28.055Z,4
2022-12-02T09:29:29.669Z,4.1
2022-12-02T09:39:41.011Z,4.2
2022-12-02T09:41:42.639Z,4.2
2022-12-02T09:47:47.554Z,4.2
2022-12-02T09:49:49.084Z,4.1
2022-12-02T09:51:53.920Z,4.3
2022-12-02T09:53:55.550Z,4.2
2022-12-02T09:55:57.177Z,4.2
2022-12-02T09:56:59.585Z,4.1
2022-12-02T09:59:01.214Z,4
2022-12-02T10:01:02.810Z,4
2022-12-02T10:03:04.490Z,4
2022-12-02T10:05:09.328Z,4
2022-12-02T10:07:10.945Z,4.1
2022-12-02T10:09:12.557Z,4
2022-12-02T10:11:14.178Z,4
2022-12-02T10:15:17.434Z,4
2022-12-02T10:23:27.116Z,3.9
2022-12-02T10:25:28.749Z,4
2022-12-02T10:27:30.389Z,4
2022-12-02T10:33:38.470Z,3.8
2022-12-02T10:35:40.096Z,3.8
2022-12-02T10:37:41.689Z,3.8
2022-12-02T10:41:44.904Z,3.8
2022-12-02T10:43:46.521Z,3.9
2022-12-02T10:45:48.127Z,3.8
2022-12-02T10:47:52.985Z,3.9
2022-12-02T10:49:54.596Z,3.8
2022-12-02T10:51:56.191Z,3.9
2022-12-02T10:55:00.590Z,3.7
2022-12-02T10:57:01.862Z,3.8
2022-12-02T10:59:03.445Z,3.7
2022-12-02T11:01:08.381Z,3.6
2022-12-02T11:03:09.923Z,3.6
2022-12-02T11:05:11.530Z,3.7
2022-12-02T11:11:16.344Z,3.9
2022-12-02T11:13:17.968Z,4
2022-12-02T11:15:22.823Z,3.9
2022-12-02T11:17:24.430Z,3.9
2022-12-02T11:19:26.023Z,4
2022-12-02T11:21:27.639Z,4.2
2022-12-02T11:23:29.256Z,4
2022-12-02T11:25:30.906Z,4.2
2022-12-02T11:27:32.463Z,4.2
2022-12-02T11:29:37.314Z,4.2
2022-12-02T11:31:39.003Z,4.2
2022-12-02T11:33:40.524Z,4.3
2022-12-02T11:35:42.141Z,4.3
2022-12-02T11:37:43.895Z,4.3
2022-12-02T11:39:50.117Z,4.2
2022-12-02T11:41:46.965Z,4.2
2022-12-02T11:43:51.819Z,4
2022-12-02T11:45:53.516Z,3.9
2022-12-02T11:47:55.040Z,3.9
2022-12-02T11:50:23.666Z,4
2022-12-02T11:52:25.287Z,4
2022-12-02T11:54:26.906Z,4
2022-12-02T11:56:31.739Z,4
2022-12-02T11:58:33.336Z,4.1
2022-12-02T12:00:38.155Z,4.1
2022-12-02T12:02:36.651Z,4
2022-12-02T12:04:38.194Z,4.1
2022-12-02T12:06:39.815Z,4.1
2022-12-02T12:08:41.619Z,4
2022-12-02T12:10:46.274Z,4
2022-12-02T12:12:47.909Z,4.2
2022-12-02T12:14:49.765Z,4.1
2022-12-02T12:16:51.260Z,4.1
2022-12-02T12:18:52.747Z,4.2
2022-12-02T12:20:54.354Z,4.1
2022-12-02T12:22:55.954Z,4.1
2022-12-02T12:25:00.817Z,4.1
2022-12-02T12:27:02.414Z,4.1
2022-12-02T12:31:05.747Z,4
2022-12-02T12:33:07.269Z,4.1
2022-12-02T12:35:08.895Z,4.2
2022-12-02T12:37:10.489Z,4.2
2022-12-02T12:39:15.345Z,4.1
2022-12-02T12:41:31.037Z,4.2
2022-12-02T12:43:18.580Z,4.2
2022-12-02T12:52:30.703Z,4
2022-12-02T12:54:32.334Z,4
2022-12-02T13:00:37.181Z,3.7
2022-12-02T13:02:38.837Z,3.6
2022-12-02T13:08:46.875Z,3.8
2022-12-02T13:10:48.526Z,3.7
2022-12-02T13:12:50.145Z,3.7
2022-12-02T13:14:51.936Z,3.8
2022-12-02T13:16:53.399Z,3.7
2022-12-02T13:18:54.959Z,3.7
2022-12-02T13:20:59.815Z,3.7
2022-12-02T13:23:01.424Z,3.8
2022-12-02T13:25:03.017Z,3.8
2022-12-02T13:27:04.626Z,3.6
2022-12-02T13:29:06.241Z,3.7
2022-12-02T13:31:07.906Z,3.8
2022-12-02T13:33:09.441Z,3.6
2022-12-02T13:35:18.866Z,3.7
2022-12-02T13:37:17.438Z,3.7
2022-12-02T13:39:19.015Z,3.6
2022-12-02T13:40:21.436Z,3.6
2022-12-02T13:46:26.385Z,3.7
2022-12-02T13:48:31.081Z,3.7
2022-12-02T13:52:34.299Z,3.5
2022-12-02T13:56:37.489Z,3.6
2022-12-02T13:58:39.099Z,3.6
2022-12-02T14:00:40.678Z,3.5
2022-12-02T14:02:45.552Z,3.6
2022-12-02T14:04:47.109Z,3.5
2022-12-02T14:06:48.726Z,3.6
2022-12-02T14:08:50.325Z,3.5
2022-12-02T14:10:51.968Z,3.4
2022-12-02T14:12:53.540Z,3.3
2022-12-02T14:14:55.366Z,3.4
2022-12-02T14:16:59.969Z,3.5
2022-12-02T14:19:01.553Z,3.5
2022-12-02T14:21:03.171Z,3.4
2022-12-02T14:23:04.759Z,3.4
2022-12-02T14:25:06.345Z,3.4
2022-12-02T14:27:07.937Z,3.5
2022-12-02T14:29:09.523Z,3.4
2022-12-02T14:31:23.916Z,3.3
2022-12-02T14:35:17.552Z,3.3
2022-12-02T14:36:19.985Z,3.3
2022-12-02T14:38:21.566Z,3.3
2022-12-02T14:40:23.148Z,3.4
2022-12-02T14:42:24.746Z,3.5
2022-12-02T14:44:29.574Z,3.4
2022-12-02T14:46:31.229Z,3.4
2022-12-02T14:48:32.752Z,3.3
2022-12-02T14:50:34.478Z,3.3
2022-12-02T14:52:35.925Z,3.4
2022-12-02T14:54:37.612Z,3.4
2022-12-02T14:56:39.100Z,3.4
2022-12-02T14:58:43.915Z,3.5
2022-12-02T15:00:45.535Z,3.4
2022-12-02T15:02:47.178Z,3.5
2022-12-02T15:04:48.693Z,3.5
2022-12-02T15:06:50.300Z,3.4
2022-12-02T15:08:51.879Z,3.4
2022-12-02T15:10:53.479Z,3.4
2022-12-02T15:12:58.296Z,3.4
2022-12-02T15:15:22.807Z,3.3
2022-12-02T15:17:01.507Z,3.5
2022-12-02T15:21:07.028Z,3.5
2022-12-02T15:23:06.242Z,3.4
2022-12-02T15:25:07.829Z,3.4
2022-12-02T15:27:12.653Z,3.5
2022-12-02T15:29:14.264Z,3.3
2022-12-02T15:31:15.885Z,3.4
2022-12-02T15:33:44.457Z,3.6
2022-12-02T15:35:46.071Z,3.6
2022-12-02T15:39:52.472Z,3.5
2022-12-02T15:47:58.857Z,3.2
2022-12-02T15:50:00.470Z,3.4
2022-12-02T15:52:02.042Z,3.5
2022-12-02T15:54:06.869Z,3.5
2022-12-02T15:56:08.481Z,3.5
2022-12-02T15:58:10.246Z,3.6
2022-12-02T16:00:11.654Z,3.5
2022-12-02T16:02:13.268Z,3.5
2022-12-02T16:04:14.867Z,3.4
2022-12-02T16:06:16.439Z,3.4
2022-12-02T16:08:21.408Z,3.6
2022-12-02T16:10:22.889Z,3.6
2022-12-02T16:12:24.557Z,3.6
2022-12-02T16:14:26.089Z,3.5
2022-12-02T16:16:27.794Z,3.6
2022-12-02T16:18:29.341Z,3.6
2022-12-02T16:20:30.923Z,3.6
2022-12-02T16:22:35.809Z,3.6
2022-12-02T16:24:37.378Z,3.6
2022-12-02T16:26:38.970Z,3.6
2022-12-02T16:27:41.412Z,3.5
2022-12-02T16:29:43.025Z,3.6
2022-12-02T16:31:44.638Z,3.5
2022-12-02T16:33:46.207Z,3.6
2022-12-02T16:35:51.072Z,3.6
2022-12-02T16:37:52.680Z,3.7
2022-12-02T16:39:54.295Z,3.7
2022-12-02T16:41:55.906Z,3.7
2022-12-02T16:43:57.532Z,3.8
2022-12-02T16:45:59.233Z,3.7
2022-12-02T16:48:00.769Z,3.7
2022-12-02T16:50:05.594Z,3.8
2022-12-02T16:54:08.846Z,3.7
2022-12-02T16:56:10.459Z,3.4
2022-12-02T16:58:12.053Z,3.7
2022-12-02T17:00:13.656Z,3.8
2022-12-02T17:02:15.316Z,3.6
2022-12-02T17:06:21.753Z,3.6
2022-12-02T17:08:23.347Z,3.6
2022-12-02T17:10:24.965Z,3.6
2022-12-02T17:12:26.605Z,3.6
2022-12-02T17:14:28.208Z,3.6
2022-12-02T17:16:29.897Z,3.6
2022-12-02T17:20:36.276Z,3.6
2022-12-02T17:22:37.899Z,3.6
2022-12-02T17:23:40.326Z,3.6
2022-12-02T17:25:41.914Z,3.6
2022-12-02T17:27:43.537Z,3.7
2022-12-02T17:29:45.134Z,3.7
2022-12-02T17:31:50.086Z,3.7
2022-12-02T17:33:51.584Z,3.6
2022-12-02T17:35:53.192Z,3.6
2022-12-02T17:37:54.800Z,3.6
2022-12-02T17:39:56.442Z,3.5
2022-12-02T17:41:58.019Z,3.6
2022-12-02T17:43:59.631Z,3.5
2022-12-02T17:46:04.491Z,3.5
2022-12-02T17:48:06.071Z,3.4
2022-12-02T17:50:07.671Z,3.5
2022-12-02T17:52:20.503Z,3.4
2022-12-02T17:54:10.888Z,3.5
2022-12-02T17:56:12.481Z,3.5
2022-12-02T17:58:14.090Z,3.5
2022-12-02T18:00:18.954Z,3.5
2022-12-02T18:02:20.669Z,3.5
2022-12-02T18:04:22.142Z,3.5
2022-12-02T18:10:26.932Z,3.6
2022-12-02T18:12:28.543Z,3.5
2022-12-02T18:14:33.368Z,3.5
2022-12-02T18:16:34.991Z,3.6
2022-12-02T18:18:36.576Z,3.7
2022-12-02T18:19:38.983Z,3.6
2022-12-02T18:21:40.726Z,3.5
2022-12-02T18:23:42.190Z,3.5
2022-12-02T18:25:43.823Z,3.4
2022-12-02T18:27:48.622Z,3.4
2022-12-02T18:29:50.221Z,3.5
2022-12-02T18:31:51.846Z,3.4
2022-12-02T18:33:53.425Z,3.6
2022-12-02T18:35:55.039Z,3.5
2022-12-02T18:37:56.617Z,3.4
2022-12-02T18:39:58.222Z,3.4
2022-12-02T18:42:03.081Z,3.4
2022-12-02T18:44:04.712Z,3.4
2022-12-02T18:46:06.330Z,3.3
2022-12-02T18:48:07.875Z,3.4
2022-12-02T18:50:09.476Z,3.5
2022-12-02T18:58:19.103Z,3.3
2022-12-02T19:00:20.725Z,3.2
2022-12-02T19:02:22.444Z,3.2
2022-12-02T19:04:23.917Z,3.4
2022-12-02T19:06:25.487Z,3.3
2022-12-02T19:12:33.537Z,3.3
2022-12-02T19:17:03.728Z,3.3
2022-12-02T19:21:06.940Z,3.3
2022-12-02T19:25:13.340Z,3.3
2022-12-02T19:27:49.376Z,3.4
2022-12-02T19:29:18.060Z,3.3
2022-12-02T19:35:22.829Z,3.4
2022-12-02T19:39:29.279Z,3.4
2022-12-02T19:45:34.044Z,3.5
2022-12-02T19:53:43.661Z,3.6
2022-12-02T20:07:58.111Z,3.3
2022-12-02T20:11:02.059Z,3.3
2022-12-02T20:13:03.666Z,3.3
2022-12-02T20:15:05.230Z,3.4
2022-12-02T20:17:06.834Z,3.2
2022-12-02T20:19:11.661Z,3.3
2022-12-02T20:21:15.017Z,3.3
2022-12-02T20:23:14.817Z,3.4
2022-12-02T20:25:16.492Z,3.3
2022-12-02T20:27:18.017Z,3.4
2022-12-02T20:29:19.614Z,3.3
2022-12-02T20:31:21.323Z,3.5
2022-12-02T20:33:26.014Z,3.4
2022-12-02T20:35:27.630Z,3.4
2022-12-02T20:37:29.197Z,3.4
2022-12-02T20:39:30.786Z,3.4
2022-12-02T20:41:32.383Z,3.3
2022-12-02T20:43:33.967Z,3.3
2022-12-02T20:45:35.668Z,3.3
2022-12-02T20:47:40.390Z,3.3
2022-12-02T20:49:41.988Z,3.3
2022-12-02T20:51:43.560Z,3.3
2022-12-02T20:53:45.134Z,3.1
2022-12-02T20:55:46.762Z,3.3
2022-12-02T20:57:48.371Z,3.2
2022-12-02T20:59:49.954Z,3.3
2022-12-02T21:01:54.818Z,3.2
2022-12-02T21:03:56.341Z,3.3
2022-12-02T21:05:57.945Z,3.2
2022-12-02T21:07:02.964Z,3.3
2022-12-02T21:09:01.962Z,3.1
2022-12-02T21:11:03.558Z,3.3
2022-12-02T21:13:05.133Z,3.2
2022-12-02T21:15:09.970Z,3.3
2022-12-02T21:17:11.554Z,3.3
2022-12-02T21:19:13.181Z,3.3
2022-12-02T21:23:16.345Z,3.3
2022-12-02T21:25:17.926Z,3.3
2022-12-02T21:27:19.538Z,3.3
2022-12-02T21:29:24.338Z,3.4
2022-12-02T21:31:26.020Z,3.4
2022-12-02T21:33:27.511Z,3.2
2022-12-02T21:35:29.122Z,3.3
2022-12-02T21:37:30.718Z,3.1
2022-12-02T21:39:32.308Z,3.3
2022-12-02T21:41:33.868Z,3.3
2022-12-02T21:43:38.698Z,3.2
2022-12-02T21:49:48.915Z,3.2
2022-12-02T21:51:45.046Z,3.2
2022-12-02T21:53:46.637Z,3.3
2022-12-02T21:57:53.049Z,3.4
2022-12-02T21:59:54.639Z,3.4
2022-12-02T22:01:56.363Z,3.2
2022-12-02T22:05:00.210Z,3.2
2022-12-02T22:07:01.811Z,3.3
2022-12-02T22:09:03.419Z,3.3
2022-12-02T22:17:12.974Z,3.1
2022-12-02T22:19:15.308Z,3.1
2022-12-02T22:23:17.745Z,3.2
2022-12-02T22:25:22.559Z,3.2
2022-12-02T22:27:24.146Z,3.2
2022-12-02T22:31:27.445Z,3.2
2022-12-02T22:37:32.070Z,3.2
2022-12-02T22:41:38.492Z,3.2
2022-12-02T22:47:43.228Z,3.3
2022-12-02T22:49:44.832Z,3.2
2022-12-02T22:51:46.403Z,3.2
2022-12-02T22:55:52.814Z,3.2
2022-12-02T22:57:54.400Z,3.3
2022-12-02T23:00:23.052Z,3.2
2022-12-02T23:02:24.738Z,3.2
2022-12-02T23:04:26.201Z,3.1
2022-12-02T23:06:31.043Z,3.2
2022-12-02T23:08:32.619Z,3.2
2022-12-02T23:10:34.206Z,3.2
2022-12-02T23:16:39.055Z,3.2
2022-12-02T23:18:40.545Z,3.1
2022-12-02T23:20:45.376Z,3.2
2022-12-02T23:22:46.959Z,3.1
2022-12-02T23:24:48.551Z,3.2
2022-12-02T23:26:50.150Z,3.2
2022-12-02T23:30:53.343Z,3.2
2022-12-02T23:32:54.905Z,3.2
2022-12-02T23:34:59.719Z,3.3
2022-12-02T23:37:01.307Z,3.3
2022-12-02T23:39:02.885Z,3.2
2022-12-02T23:41:04.480Z,3.2
2022-12-02T23:43:06.066Z,3.2
2022-12-02T23:45:07.661Z,3.2
2022-12-02T23:47:09.267Z,3.2
2022-12-02T23:49:14.078Z,3.3
2022-12-02T23:51:15.674Z,3.3
2022-12-02T23:53:17.243Z,3.3
2022-12-02T23:54:19.673Z,3.1
2022-12-02T23:56:21.250Z,3.3
2022-12-02T23:58:22.818Z,3.2
